Time;durP1;ratioP1;P1;durP2;ratioP2;P2;SDS_P1;SDS_P2;PMS_P1;PMS_P2;Temp;Humidity;BMP_temperature;BMP_pressure;BME280_temperature;BME280_humidity;BME280_pressure;Samples;Min_cycle;Max_cycle;Signal;HPM_P1;HPM_P2
2023/08/23 00:01:53;;;;;;;3.67;3.20;;;;;;;25.00;76.90;100682.63;5029561;28;20036;-63
2023/08/23 00:04:19;;;;;;;4.45;4.05;;;;;;;24.95;76.94;100676.34;5031597;28;20041;-63
2023/08/23 00:06:45;;;;;;;4.80;3.55;;;;;;;24.90;77.40;100679.72;5032943;28;20034;-63
2023/08/23 00:09:10;;;;;;;4.13;3.78;;;;;;;24.92;77.13;100682.16;5039374;28;20116;-63
2023/08/23 00:11:36;;;;;;;4.13;3.70;;;;;;;24.93;77.16;100673.94;5031413;28;20473;-63
2023/08/23 00:14:02;;;;;;;3.90;3.53;;;;;;;24.96;77.01;100673.50;5025018;28;20061;-63
2023/08/23 00:16:28;;;;;;;4.75;3.80;;;;;;;25.04;76.20;100675.00;5029394;28;20025;-63
2023/08/23 00:18:53;;;;;;;4.43;3.90;;;;;;;25.13;75.59;100674.38;5035036;28;20029;-63
2023/08/23 00:21:19;;;;;;;4.57;3.97;;;;;;;25.21;75.14;100675.06;5038709;28;20531;-63
2023/08/23 00:23:44;;;;;;;5.10;4.35;;;;;;;25.28;74.44;100676.53;5032911;28;20030;-63
2023/08/23 00:26:11;;;;;;;5.28;4.07;;;;;;;25.36;73.54;100668.16;5032700;28;20041;-63
2023/08/23 00:28:39;;;;;;;4.10;3.70;;;;;;;25.41;73.54;100670.94;5029423;28;20038;-63
2023/08/23 00:31:04;;;;;;;5.05;4.35;;;;;;;25.37;74.11;100668.97;5032960;28;20563;-63
2023/08/23 00:33:30;;;;;;;4.10;3.70;;;;;;;25.30;74.57;100676.31;5030337;28;20063;-63
2023/08/23 00:35:55;;;;;;;3.92;3.63;;;;;;;25.23;74.77;100673.75;5030409;28;20053;-63
2023/08/23 00:38:21;;;;;;;4.95;4.18;;;;;;;25.20;74.93;100668.09;5032701;28;20115;-63
2023/08/23 00:40:46;;;;;;;6.30;4.53;;;;;;;25.19;74.92;100672.63;5032960;28;20060;-63
2023/08/23 00:43:12;;;;;;;7.78;4.00;;;;;;;25.20;74.94;100663.56;5025202;28;20080;-63
2023/08/23 00:45:39;;;;;;;4.82;4.43;;;;;;;25.12;75.43;100666.59;5032794;28;20033;-63
2023/08/23 00:48:05;;;;;;;6.07;4.20;;;;;;;25.00;76.35;100668.50;5030480;28;20044;-63
2023/08/23 00:50:31;;;;;;;6.72;3.90;;;;;;;24.96;77.00;100664.69;5029432;28;20474;-63
2023/08/23 00:52:57;;;;;;;5.40;4.20;;;;;;;24.94;76.79;100656.06;5034331;28;20024;-63
2023/08/23 00:55:23;;;;;;;4.65;4.00;;;;;;;24.96;76.73;100652.16;5032535;28;20033;-64
2023/08/23 00:57:50;;;;;;;5.10;4.38;;;;;;;24.88;77.18;100646.34;5030888;28;20092;-63
2023/08/23 01:00:16;;;;;;;7.03;3.83;;;;;;;24.87;77.09;100642.06;5035340;28;20037;-65
2023/08/23 01:02:42;;;;;;;4.70;4.03;;;;;;;24.88;77.43;100643.69;5030083;28;20584;-65
2023/08/23 01:05:08;;;;;;;7.88;4.15;;;;;;;24.91;77.10;100654.69;5030165;28;20123;-65
2023/08/23 01:08:02;;;;;;;4.68;3.88;;;;;;;24.97;76.46;100648.47;5029487;28;20044;-65
2023/08/23 01:10:39;;;;;;;5.10;4.15;;;;;;;25.07;76.30;100658.50;5028620;28;20048;-64
2023/08/23 01:13:21;;;;;;;5.72;4.25;;;;;;;25.09;75.76;100656.41;5025981;28;20025;-65
2023/08/23 01:15:48;;;;;;;6.72;3.47;;;;;;;25.06;76.09;100670.19;5030083;28;20402;-65
2023/08/23 01:18:14;;;;;;;7.07;4.20;;;;;;;24.94;76.76;100672.06;5026025;28;20033;-64
2023/08/23 01:20:40;;;;;;;4.40;4.00;;;;;;;24.82;77.44;100661.41;5030680;28;20029;-64
2023/08/23 01:23:14;;;;;;;5.00;4.50;;;;;;;24.73;78.08;100666.28;5032319;28;20033;-64
2023/08/23 01:25:49;;;;;;;4.85;4.38;;;;;;;24.72;77.89;100659.34;5032877;28;20036;-64
2023/08/23 01:28:16;;;;;;;5.43;4.22;;;;;;;24.71;77.99;100664.91;5025276;28;21620;-64
2023/08/23 01:30:42;;;;;;;7.13;4.07;;;;;;;24.66;78.27;100662.94;5032992;28;20037;-64
2023/08/23 01:33:39;;;;;;;5.95;4.35;;;;;;;24.65;78.75;100655.16;5033083;28;21172;-64
2023/08/23 01:36:20;;;;;;;5.45;3.53;;;;;;;24.66;78.60;100654.94;5027665;28;20057;-63
2023/08/23 01:38:47;;;;;;;6.00;4.50;;;;;;;24.71;78.29;100651.56;5031783;28;20555;-64
2023/08/23 01:41:14;;;;;;;8.82;4.25;;;;;;;24.80;78.00;100661.66;5023768;28;20068;-64
2023/08/23 01:43:39;;;;;;;5.20;4.70;;;;;;;24.89;77.14;100655.97;5031788;28;20468;-64
2023/08/23 01:46:05;;;;;;;6.22;4.80;;;;;;;24.95;76.79;100661.19;5024882;28;20034;-63
2023/08/23 01:48:30;;;;;;;9.55;4.07;;;;;;;25.00;76.53;100655.19;5035648;28;20029;-63
2023/08/23 01:50:56;;;;;;;5.70;4.28;;;;;;;24.97;76.69;100643.13;5032136;28;20111;-63
2023/08/23 01:53:21;;;;;;;11.30;4.30;;;;;;;24.91;77.00;100644.03;5030476;28;20033;-64
2023/08/23 01:55:47;;;;;;;4.80;3.80;;;;;;;24.87;77.33;100644.72;5032773;28;20037;-64
2023/08/23 01:58:12;;;;;;;4.90;4.30;;;;;;;24.87;77.21;100640.22;5030661;28;20480;-64
2023/08/23 02:00:37;;;;;;;5.10;4.57;;;;;;;24.86;77.19;100645.78;5028678;28;20478;-64
2023/08/23 02:03:03;;;;;;;4.97;4.57;;;;;;;24.92;76.98;100650.97;5028196;28;20087;-64
2023/08/23 02:05:32;;;;;;;7.85;4.75;;;;;;;24.91;76.95;100648.56;5030578;28;20136;-64
2023/08/23 02:07:57;;;;;;;11.13;4.38;;;;;;;24.89;77.21;100650.63;5030295;28;20156;-64
2023/08/23 02:10:23;;;;;;;5.60;4.20;;;;;;;24.83;77.55;100649.72;5031270;28;20120;-63
2023/08/23 02:12:48;;;;;;;8.85;4.50;;;;;;;24.74;77.88;100643.94;5030080;28;20094;-63
2023/08/23 02:15:13;;;;;;;4.70;4.28;;;;;;;24.65;78.38;100639.19;5025864;28;20025;-64
2023/08/23 02:17:39;;;;;;;5.88;4.53;;;;;;;24.55;78.94;100631.78;5025184;28;20053;-64
2023/08/23 02:20:05;;;;;;;6.65;4.55;;;;;;;24.50;79.18;100623.69;5035321;28;20537;-64
2023/08/23 02:22:31;;;;;;;6.47;4.38;;;;;;;24.49;79.44;100614.09;5032229;28;20044;-64
2023/08/23 02:24:56;;;;;;;7.00;4.65;;;;;;;24.52;79.28;100613.63;5030253;28;20037;-64
2023/08/23 02:27:22;;;;;;;4.40;3.90;;;;;;;24.55;79.14;100617.66;5026240;28;20045;-64
2023/08/23 02:29:47;;;;;;;5.80;4.78;;;;;;;24.59;78.91;100627.59;5028897;28;20040;-64
2023/08/23 02:32:13;;;;;;;5.78;4.47;;;;;;;24.66;78.14;100638.94;5036427;28;20041;-64
2023/08/23 02:34:38;;;;;;;8.38;4.68;;;;;;;24.78;77.38;100634.44;5027905;28;20025;-64
2023/08/23 02:37:04;;;;;;;6.03;4.47;;;;;;;24.85;76.88;100628.16;5021027;28;20100;-64
2023/08/23 02:39:29;;;;;;;5.88;4.53;;;;;;;24.78;77.31;100639.75;5027283;28;20049;-63
2023/08/23 02:41:54;;;;;;;4.85;4.38;;;;;;;24.64;78.21;100635.72;5023470;28;20051;-64
2023/08/23 02:44:20;;;;;;;8.70;4.95;;;;;;;24.44;79.50;100627.28;5024032;28;20484;-64
2023/08/23 02:46:45;;;;;;;4.85;4.45;;;;;;;24.26;80.57;100624.72;5018060;28;20029;-64
2023/08/23 02:49:11;;;;;;;5.00;4.50;;;;;;;24.17;81.10;100619.69;5033959;28;20123;-64
2023/08/23 02:51:36;;;;;;;7.55;5.03;;;;;;;24.17;80.88;100611.72;5021900;28;20030;-64
2023/08/23 02:54:02;;;;;;;9.68;4.53;;;;;;;24.21;80.90;100605.94;5025305;28;20033;-64
2023/08/23 02:56:27;;;;;;;5.15;4.60;;;;;;;24.24;80.49;100600.94;5024951;28;20492;-64
2023/08/23 02:58:53;;;;;;;6.70;5.03;;;;;;;24.31;80.11;100600.88;5027926;28;20037;-64
2023/08/23 03:01:18;;;;;;;4.93;4.43;;;;;;;24.32;80.42;100605.97;5017623;28;20030;-64
2023/08/23 03:03:44;;;;;;;6.80;4.60;;;;;;;24.39;79.67;100603.19;5029503;28;20032;-64
2023/08/23 03:06:09;;;;;;;5.95;4.70;;;;;;;24.45;79.17;100608.41;5026739;28;20038;-64
2023/08/23 03:08:34;;;;;;;7.15;4.32;;;;;;;24.46;79.09;100609.22;5021318;28;20113;-63
2023/08/23 03:11:04;;;;;;;9.18;5.00;;;;;;;24.40;79.62;100602.97;5027185;28;20120;-63
2023/08/23 03:13:30;;;;;;;6.90;3.95;;;;;;;24.29;80.21;100610.94;5025044;28;20425;-64
2023/08/23 03:15:56;;;;;;;9.18;5.07;;;;;;;24.14;81.10;100606.03;5019994;28;20029;-64
2023/08/23 03:18:21;;;;;;;6.97;4.78;;;;;;;24.02;81.74;100611.38;5024899;28;20346;-64
2023/08/23 03:20:50;;;;;;;6.80;4.03;;;;;;;24.01;81.91;100616.91;5025284;28;20033;-64
2023/08/23 03:23:17;;;;;;;6.22;4.78;;;;;;;23.98;82.03;100618.19;5023995;28;20385;-64
2023/08/23 03:25:46;;;;;;;7.53;5.95;;;;;;;23.97;82.20;100610.44;5029702;28;20107;-64
2023/08/23 03:28:13;;;;;;;5.30;4.80;;;;;;;23.97;81.73;100613.91;5027024;28;20033;-64
2023/08/23 03:30:39;;;;;;;6.57;4.82;;;;;;;23.98;81.73;100612.03;5021616;28;20032;-64
2023/08/23 03:33:05;;;;;;;5.70;5.05;;;;;;;24.02;82.00;100613.22;5024783;28;20034;-64
2023/08/23 03:35:30;;;;;;;6.82;5.13;;;;;;;24.03;81.86;100609.50;5021889;28;20343;-64
2023/08/23 03:37:56;;;;;;;5.32;4.82;;;;;;;24.03;81.58;100605.00;5025701;28;20075;-64
2023/08/23 03:40:21;;;;;;;4.68;4.22;;;;;;;24.05;81.38;100608.25;5027812;28;20116;-64
2023/08/23 03:42:47;;;;;;;6.18;4.97;;;;;;;24.09;81.06;100606.75;5030895;28;20412;-64
2023/08/23 03:45:12;;;;;;;4.63;4.13;;;;;;;24.16;80.48;100610.09;5026888;28;20068;-64
2023/08/23 03:47:38;;;;;;;5.53;4.80;;;;;;;24.20;80.48;100604.31;5023918;28;20036;-64
2023/08/23 03:50:04;;;;;;;7.57;4.53;;;;;;;24.19;80.50;100602.69;5033280;28;20037;-64
2023/08/23 03:52:29;;;;;;;5.72;5.05;;;;;;;24.12;80.94;100608.13;5023314;28;20034;-64
2023/08/23 03:54:55;;;;;;;7.18;4.90;;;;;;;24.02;81.67;100600.72;5029220;28;20069;-63
2023/08/23 03:57:20;;;;;;;5.10;4.53;;;;;;;23.96;81.87;100603.47;5028492;28;20119;-64
2023/08/23 03:59:46;;;;;;;5.30;4.80;;;;;;;23.91;82.17;100598.84;5029171;28;20036;-64
2023/08/23 04:02:12;;;;;;;5.68;4.85;;;;;;;23.86;82.54;100598.72;5030290;28;20043;-64
2023/08/23 04:04:37;;;;;;;6.07;4.75;;;;;;;23.87;82.66;100596.88;5030209;28;20038;-64
2023/08/23 04:07:06;;;;;;;6.13;4.78;;;;;;;23.84;82.86;100595.47;5030227;28;20030;-65
2023/08/23 04:09:31;;;;;;;7.78;4.97;;;;;;;23.90;82.22;100602.53;5029074;28;20518;-64
2023/08/23 04:11:57;;;;;;;4.78;4.38;;;;;;;23.93;81.75;100603.94;5027389;28;20140;-63
2023/08/23 04:14:22;;;;;;;6.82;4.70;;;;;;;23.97;81.45;100602.44;5030696;28;20060;-63
2023/08/23 04:16:48;;;;;;;6.18;4.97;;;;;;;23.87;82.75;100604.84;5021759;28;20022;-64
2023/08/23 04:19:13;;;;;;;5.72;4.45;;;;;;;23.81;82.67;100602.06;5027839;28;20053;-64
2023/08/23 04:21:39;;;;;;;7.10;5.25;;;;;;;23.70;83.60;100602.03;5027239;28;20034;-64
2023/08/23 04:24:04;;;;;;;10.13;5.47;;;;;;;23.62;83.90;100605.84;5022720;28;20078;-64
2023/08/23 04:26:30;;;;;;;8.00;5.10;;;;;;;23.58;84.15;100598.53;5027083;28;20510;-64
2023/08/23 04:28:55;;;;;;;6.95;4.53;;;;;;;23.62;83.99;100603.19;5027975;28;20043;-64
2023/08/23 04:31:21;;;;;;;7.68;4.85;;;;;;;23.65;83.81;100594.72;5029361;28;20029;-64
2023/08/23 04:33:46;;;;;;;6.18;4.65;;;;;;;23.70;83.43;100599.38;5029444;28;20044;-64
2023/08/23 04:36:11;;;;;;;7.63;4.70;;;;;;;23.77;82.95;100594.75;5024104;28;20054;-64
2023/08/23 04:38:37;;;;;;;5.65;4.78;;;;;;;23.78;82.71;100591.88;5021621;28;20025;-65
2023/08/23 04:41:04;;;;;;;7.35;4.78;;;;;;;23.80;82.99;100594.31;5027840;28;20033;-64
2023/08/23 04:43:29;;;;;;;7.82;5.35;;;;;;;23.82;82.67;100600.22;5027638;28;20484;-66
2023/08/23 04:45:55;;;;;;;6.25;4.80;;;;;;;23.89;81.79;100603.59;5029675;28;20046;-65
2023/08/23 04:48:21;;;;;;;5.75;4.57;;;;;;;23.94;81.47;100601.06;5021080;28;20041;-64
2023/08/23 04:50:57;;;;;;;6.63;4.80;;;;;;;23.95;81.09;100597.34;5021126;28;20111;-64
2023/08/23 04:53:26;;;;;;;7.60;4.63;;;;;;;23.98;81.35;100596.91;5017953;28;20033;-64
2023/08/23 04:56:00;;;;;;;6.28;5.38;;;;;;;23.90;82.17;100599.88;5028747;28;20112;-64
2023/08/23 04:58:32;;;;;;;6.45;5.05;;;;;;;23.79;82.85;100604.13;5032442;28;20132;-64
2023/08/23 05:01:05;;;;;;;8.07;4.93;;;;;;;23.74;83.04;100605.84;5018981;28;20052;-64
2023/08/23 05:03:31;;;;;;;7.30;5.28;;;;;;;23.75;83.23;100610.94;5026898;28;20026;-65
2023/08/23 05:06:01;;;;;;;10.85;5.05;;;;;;;23.78;83.44;100601.69;5023561;28;20651;-64
2023/08/23 05:08:28;;;;;;;15.68;5.65;;;;;;;23.76;83.55;100601.94;5025328;28;20085;-64
2023/08/23 05:10:54;;;;;;;6.22;5.60;;;;;;;23.78;83.48;100602.50;5031455;28;20468;-64
2023/08/23 05:13:21;;;;;;;5.50;4.95;;;;;;;23.80;83.46;100611.06;5029433;28;20033;-64
2023/08/23 05:15:53;;;;;;;11.27;4.82;;;;;;;23.80;83.88;100615.59;5022842;28;20363;-65
2023/08/23 05:18:19;;;;;;;11.70;5.50;;;;;;;23.75;83.76;100616.25;5018237;28;20120;-65
2023/08/23 05:20:45;;;;;;;6.72;5.28;;;;;;;23.82;83.78;100610.84;5021707;28;20486;-64
2023/08/23 05:23:11;;;;;;;6.45;5.07;;;;;;;23.86;83.39;100613.88;5027764;28;20029;-64
2023/08/23 05:25:36;;;;;;;6.47;4.72;;;;;;;23.92;82.91;100613.78;5033151;28;20048;-64
2023/08/23 05:28:01;;;;;;;7.78;5.07;;;;;;;24.03;81.93;100614.84;5031481;28;20044;-64
2023/08/23 05:30:27;;;;;;;9.75;5.60;;;;;;;24.07;81.90;100621.31;5026523;28;20095;-64
2023/08/23 05:32:52;;;;;;;4.97;4.47;;;;;;;24.08;81.71;100618.44;5024510;28;20410;-65
2023/08/23 05:35:18;;;;;;;7.07;5.10;;;;;;;24.14;81.46;100616.69;5020087;28;20130;-64
2023/08/23 05:37:43;;;;;;;6.93;5.65;;;;;;;24.22;81.22;100618.19;5024605;28;20033;-64
2023/08/23 05:40:09;;;;;;;10.73;5.00;;;;;;;24.21;81.49;100621.91;5028062;28;20496;-64
2023/08/23 05:42:34;;;;;;;12.00;5.38;;;;;;;24.22;81.60;100619.00;5028647;28;20457;-65
2023/08/23 05:45:00;;;;;;;7.40;4.70;;;;;;;24.29;81.64;100618.94;5027068;28;20052;-65
2023/08/23 05:47:25;;;;;;;8.25;5.20;;;;;;;24.31;81.36;100622.16;5033400;28;20041;-65
2023/08/23 05:49:51;;;;;;;9.63;4.20;;;;;;;24.36;81.23;100624.97;5032665;28;20491;-64
2023/08/23 05:52:16;;;;;;;10.32;4.80;;;;;;;24.42;80.72;100621.38;5022621;28;20426;-64
2023/08/23 05:54:42;;;;;;;8.05;4.05;;;;;;;24.51;79.90;100617.31;5032023;28;20033;-64
2023/08/23 05:57:07;;;;;;;5.05;4.55;;;;;;;24.64;78.59;100622.38;5024148;28;20045;-63
2023/08/23 05:59:33;;;;;;;6.25;4.95;;;;;;;24.74;78.33;100627.13;5029397;28;20493;-63
2023/08/23 06:01:59;;;;;;;5.95;4.75;;;;;;;24.73;78.64;100620.19;5024571;28;20041;-63
2023/08/23 06:04:24;;;;;;;6.65;4.90;;;;;;;24.75;78.54;100623.44;5024781;28;20349;-63
2023/08/23 06:06:49;;;;;;;8.13;4.68;;;;;;;24.79;78.65;100625.38;5033200;28;20033;-63
2023/08/23 06:09:17;;;;;;;6.78;4.53;;;;;;;24.87;78.03;100632.22;5032725;28;20378;-63
2023/08/23 06:11:43;;;;;;;5.63;5.03;;;;;;;24.95;77.96;100636.38;5035274;28;20045;-63
2023/08/23 06:14:19;;;;;;;6.63;4.57;;;;;;;25.05;76.31;100636.59;5030348;28;20025;-64
2023/08/23 06:16:45;;;;;;;4.53;3.63;;;;;;;25.35;74.36;100631.88;5022122;28;20489;-63
2023/08/23 06:19:11;;;;;;;7.88;3.60;;;;;;;25.66;73.17;100627.13;5021855;28;20029;-63
2023/08/23 06:21:37;;;;;;;5.30;3.75;;;;;;;25.66;73.55;100632.47;5030451;28;20388;-63
2023/08/23 06:24:03;;;;;;;6.53;3.78;;;;;;;25.57;74.14;100626.66;5030321;28;20362;-63
2023/08/23 06:26:29;;;;;;;6.15;4.05;;;;;;;25.54;74.69;100626.34;5022917;28;20040;-63
2023/08/23 06:28:55;;;;;;;5.07;4.68;;;;;;;25.55;75.26;100618.09;5019419;28;20538;-63
2023/08/23 06:31:21;;;;;;;13.38;5.50;;;;;;;25.65;75.41;100628.19;5018776;28;20497;-64
2023/08/23 06:33:46;;;;;;;5.75;3.75;;;;;;;25.78;75.30;100626.03;5018250;28;20017;-64
2023/08/23 06:36:12;;;;;;;6.35;4.45;;;;;;;25.84;74.93;100618.91;5022094;28;20049;-63
2023/08/23 06:38:37;;;;;;;7.35;4.30;;;;;;;25.84;74.86;100618.09;5032467;28;20044;-64
2023/08/23 06:41:02;;;;;;;8.68;4.45;;;;;;;25.90;74.62;100623.28;5027329;28;20036;-64
2023/08/23 06:43:28;;;;;;;6.68;4.47;;;;;;;25.98;74.44;100617.56;5023592;28;20029;-64
2023/08/23 06:45:53;;;;;;;9.43;4.03;;;;;;;26.07;74.22;100613.41;5027175;28;20065;-64
2023/08/23 06:48:19;;;;;;;4.78;3.67;;;;;;;26.11;73.96;100619.06;5026431;28;20432;-63
2023/08/23 06:50:44;;;;;;;7.85;4.32;;;;;;;26.24;72.85;100626.75;5019964;28;20038;-62
2023/08/23 06:53:10;;;;;;;9.98;4.50;;;;;;;26.28;72.90;100624.41;5016472;28;20645;-62
2023/08/23 06:55:40;;;;;;;9.82;4.63;;;;;;;26.35;73.08;100625.09;5017153;28;20454;-63
2023/08/23 06:58:07;;;;;;;9.57;5.00;;;;;;;26.41;72.79;100624.13;5030187;28;20034;-63
2023/08/23 07:00:34;;;;;;;4.82;4.10;;;;;;;26.41;72.76;100622.25;5020407;28;20417;-63
2023/08/23 07:02:59;;;;;;;6.50;4.55;;;;;;;26.50;72.89;100619.94;5021601;28;20494;-63
2023/08/23 07:05:25;;;;;;;9.75;5.30;;;;;;;26.55;72.87;100624.56;5019693;28;20052;-63
2023/08/23 07:07:50;;;;;;;8.60;4.70;;;;;;;26.56;72.89;100624.31;5022643;28;20037;-63
2023/08/23 07:10:15;;;;;;;11.63;4.38;;;;;;;26.69;72.91;100623.16;5028728;28;20504;-63
2023/08/23 07:12:41;;;;;;;9.55;4.65;;;;;;;26.88;72.73;100619.16;5032293;28;20092;-63
2023/08/23 07:15:06;;;;;;;8.07;4.22;;;;;;;27.00;72.79;100621.69;5024124;28;20493;-62
2023/08/23 07:17:34;;;;;;;8.05;4.45;;;;;;;27.03;71.98;100622.00;5025341;28;20037;-62
2023/08/23 07:20:00;;;;;;;9.63;4.82;;;;;;;27.12;70.86;100627.75;5023472;28;20033;-62
2023/08/23 07:22:25;;;;;;;5.88;4.45;;;;;;;27.25;70.40;100629.22;5025719;28;20029;-62
2023/08/23 07:24:50;;;;;;;5.90;4.00;;;;;;;27.39;69.80;100633.94;5024101;28;20048;-62
2023/08/23 07:27:16;;;;;;;5.28;3.40;;;;;;;27.52;69.67;100632.72;5017273;28;20105;-63
2023/08/23 07:29:41;;;;;;;6.18;4.35;;;;;;;27.58;69.83;100633.56;5016640;28;20042;-62
2023/08/23 07:32:07;;;;;;;4.70;4.30;;;;;;;27.75;69.41;100631.63;5026194;28;20083;-62
2023/08/23 07:34:33;;;;;;;5.95;4.40;;;;;;;27.92;68.71;100637.66;5027388;28;20037;-62
2023/08/23 07:36:58;;;;;;;7.35;4.30;;;;;;;27.93;67.77;100633.91;5023885;28;20041;-62
2023/08/23 07:39:25;;;;;;;6.95;4.28;;;;;;;27.94;68.39;100630.19;5027942;28;20370;-62
2023/08/23 07:41:50;;;;;;;6.55;3.90;;;;;;;28.02;67.53;100637.75;5024466;28;20026;-62
2023/08/23 07:44:16;;;;;;;4.38;3.90;;;;;;;28.12;67.82;100636.22;5036234;28;20484;-62
2023/08/23 07:46:41;;;;;;;4.88;4.38;;;;;;;28.22;67.00;100641.69;5022317;28;20501;-63
2023/08/23 07:49:07;;;;;;;5.60;4.03;;;;;;;28.20;67.01;100643.78;5029439;28;20037;-62
2023/08/23 07:51:32;;;;;;;7.68;4.10;;;;;;;28.30;66.96;100633.19;5030798;28;20029;-62
2023/08/23 07:53:58;;;;;;;9.27;4.10;;;;;;;28.44;67.09;100634.31;5029462;28;20025;-62
2023/08/23 07:56:23;;;;;;;5.25;4.32;;;;;;;28.57;66.82;100633.88;5030633;28;20037;-62
2023/08/23 07:58:48;;;;;;;4.13;3.72;;;;;;;28.62;65.72;100641.16;5030955;28;20037;-62
2023/08/23 08:01:14;;;;;;;5.00;3.92;;;;;;;28.67;66.35;100633.94;5023105;28;20092;-62
2023/08/23 08:03:39;;;;;;;6.15;4.50;;;;;;;28.72;65.24;100639.34;5031363;28;20026;-63
2023/08/23 08:06:05;;;;;;;7.43;4.70;;;;;;;28.87;65.35;100637.81;5023248;28;20029;-62
2023/08/23 08:08:30;;;;;;;5.22;4.22;;;;;;;28.97;64.80;100644.03;5024430;28;20029;-62
2023/08/23 08:10:56;;;;;;;6.82;4.10;;;;;;;29.06;64.26;100644.31;5022088;28;20041;-62
2023/08/23 08:13:22;;;;;;;4.78;4.20;;;;;;;29.19;64.17;100657.25;5029560;28;20029;-62
2023/08/23 08:15:47;;;;;;;4.68;4.22;;;;;;;29.25;63.29;100645.47;5029019;28;20044;-62
2023/08/23 08:18:13;;;;;;;4.78;3.88;;;;;;;29.39;63.73;100654.63;5026511;28;20036;-62
2023/08/23 08:20:38;;;;;;;5.38;3.88;;;;;;;29.51;63.34;100643.69;5024671;28;20041;-62
2023/08/23 08:23:04;;;;;;;4.65;4.20;;;;;;;29.69;63.19;100645.06;5019587;28;20065;-63
2023/08/23 08:25:29;;;;;;;6.25;4.38;;;;;;;29.85;62.82;100649.34;5027671;28;20457;-63
2023/08/23 08:27:55;;;;;;;5.25;4.10;;;;;;;29.90;62.15;100646.69;5030016;28;20078;-63
2023/08/23 08:30:20;;;;;;;6.30;4.45;;;;;;;29.90;61.88;100646.69;5021774;28;20041;-63
2023/08/23 08:32:46;;;;;;;8.25;4.65;;;;;;;29.94;61.70;100647.75;5023915;28;20030;-63
2023/08/23 08:35:12;;;;;;;9.43;3.92;;;;;;;30.11;61.39;100646.72;5023101;28;20073;-63
2023/08/23 08:37:37;;;;;;;5.20;3.83;;;;;;;30.23;61.23;100640.00;5023748;28;20037;-63
2023/08/23 08:40:03;;;;;;;4.63;4.20;;;;;;;30.21;60.76;100644.84;5026993;28;20033;-63
2023/08/23 08:42:29;;;;;;;5.35;3.72;;;;;;;30.23;61.09;100650.75;5025870;28;20041;-63
2023/08/23 08:44:56;;;;;;;6.93;3.90;;;;;;;30.30;61.14;100650.44;5019112;28;20022;-63
2023/08/23 08:47:25;;;;;;;8.35;4.40;;;;;;;30.30;60.94;100645.88;5020281;28;20076;-63
2023/08/23 08:49:50;;;;;;;4.68;3.72;;;;;;;30.33;60.37;100649.91;5014788;28;20022;-64
2023/08/23 08:52:19;;;;;;;6.28;4.10;;;;;;;30.34;60.08;100641.56;5013058;28;20440;-63
2023/08/23 08:54:48;;;;;;;7.55;4.47;;;;;;;30.30;60.53;100645.88;5015814;28;20034;-63
2023/08/23 08:57:14;;;;;;;4.95;3.78;;;;;;;30.17;61.93;100648.31;5022734;28;20365;-63
2023/08/23 08:59:42;;;;;;;7.32;4.10;;;;;;;30.38;60.89;100644.53;5019812;28;20033;-63
2023/08/23 09:02:10;;;;;;;11.18;4.43;;;;;;;30.43;60.52;100649.09;5016916;28;20975;-63
2023/08/23 09:04:38;;;;;;;6.13;3.72;;;;;;;30.52;59.39;100636.72;5020841;28;20087;-63
2023/08/23 09:07:04;;;;;;;4.25;3.85;;;;;;;30.54;59.94;100635.34;5018216;28;20108;-63
2023/08/23 09:09:30;;;;;;;7.40;3.60;;;;;;;30.51;58.94;100641.28;5014454;28;20476;-63
2023/08/23 09:11:55;;;;;;;9.38;4.68;;;;;;;30.60;59.61;100638.88;5017730;28;20470;-63
2023/08/23 09:14:21;;;;;;;8.63;4.38;;;;;;;30.62;59.44;100631.34;5021688;28;20037;-63
2023/08/23 09:16:48;;;;;;;9.35;4.63;;;;;;;30.51;60.22;100629.72;5026847;28;20033;-63
2023/08/23 09:19:14;;;;;;;6.35;3.80;;;;;;;30.54;59.67;100634.56;5026974;28;20041;-63
2023/08/23 09:21:47;;;;;;;7.70;4.25;;;;;;;30.73;58.36;100622.13;5020507;28;20029;-64
2023/08/23 09:24:13;;;;;;;7.15;4.63;;;;;;;30.65;58.89;100620.03;5022967;28;20029;-63
2023/08/23 09:26:39;;;;;;;8.43;4.45;;;;;;;30.54;58.35;100631.88;5015495;28;20390;-63
2023/08/23 09:29:05;;;;;;;6.30;4.20;;;;;;;30.44;58.00;100624.63;5023447;28;20040;-63
2023/08/23 09:31:31;;;;;;;4.82;4.22;;;;;;;30.74;56.24;100612.19;5013684;28;20038;-63
2023/08/23 09:33:57;;;;;;;6.35;4.35;;;;;;;30.65;57.25;100612.78;5018660;28;20029;-63
2023/08/23 09:36:30;;;;;;;4.32;3.63;;;;;;;30.59;56.52;100616.56;5018310;28;20081;-63
2023/08/23 09:39:01;;;;;;;5.68;3.20;;;;;;;30.75;56.17;100609.22;5016302;28;20361;-63
2023/08/23 09:41:26;;;;;;;6.13;3.50;;;;;;;30.92;54.28;100608.88;5023550;28;20061;-63
2023/08/23 09:43:56;;;;;;;3.80;3.40;;;;;;;31.04;53.68;100606.69;5014379;28;20166;-63
2023/08/23 09:46:25;;;;;;;5.38;2.60;;;;;;;30.85;53.75;100609.19;5023577;28;20053;-64
2023/08/23 09:48:55;;;;;;;6.40;3.22;;;;;;;30.78;53.59;100607.88;5033582;28;20397;-63
2023/08/23 09:51:24;;;;;;;5.28;3.00;;;;;;;30.71;54.45;100607.38;5021975;28;20122;-63
2023/08/23 09:53:56;;;;;;;3.50;3.20;;;;;;;30.60;55.52;100602.03;5028678;28;20020;-63
2023/08/23 09:56:22;;;;;;;7.72;3.28;;;;;;;30.54;55.58;100602.28;5026323;28;20045;-63
2023/08/23 09:58:48;;;;;;;4.38;3.67;;;;;;;30.89;53.89;100601.38;5022744;28;20037;-63
2023/08/23 10:01:15;;;;;;;3.53;2.83;;;;;;;30.82;53.39;100598.97;5018871;28;20036;-63
2023/08/23 10:03:41;;;;;;;5.03;2.97;;;;;;;30.79;52.89;100598.72;5023205;28;20033;-63
2023/08/23 10:06:07;;;;;;;3.75;3.00;;;;;;;30.58;52.74;100593.44;5023559;28;20029;-63
2023/08/23 10:08:35;;;;;;;4.80;2.75;;;;;;;30.50;53.43;100593.97;5023247;28;20504;-63
2023/08/23 10:11:01;;;;;;;5.60;2.50;;;;;;;30.56;53.16;100589.38;5012757;28;20559;-63
2023/08/23 10:13:30;;;;;;;3.38;3.08;;;;;;;30.57;53.84;100594.50;5022147;28;20025;-63
2023/08/23 10:15:57;;;;;;;3.30;2.50;;;;;;;30.46;54.10;100584.84;5021741;28;20038;-63
2023/08/23 10:18:24;;;;;;;6.05;3.47;;;;;;;30.44;54.48;100586.19;5021022;28;20032;-63
2023/08/23 10:20:51;;;;;;;3.15;2.45;;;;;;;30.66;53.96;100584.81;5013552;28;20119;-63
2023/08/23 10:23:18;;;;;;;4.07;3.33;;;;;;;30.74;54.92;100579.91;5015136;28;20587;-63
2023/08/23 10:25:45;;;;;;;7.07;3.40;;;;;;;30.79;55.16;100582.59;5007049;28;20047;-63
2023/08/23 10:28:16;;;;;;;3.85;2.80;;;;;;;30.76;54.03;100578.56;5019780;28;20034;-63
2023/08/23 10:30:48;;;;;;;3.50;2.50;;;;;;;30.79;53.49;100579.91;5017263;28;20048;-63
2023/08/23 10:33:15;;;;;;;3.20;2.60;;;;;;;30.77;53.26;100579.38;5012591;28;20021;-64
2023/08/23 10:35:45;;;;;;;4.22;2.83;;;;;;;30.97;53.02;100573.91;5019759;28;20503;-63
2023/08/23 10:38:11;;;;;;;3.95;2.75;;;;;;;30.99;52.81;100574.44;5016480;28;20063;-63
2023/08/23 10:40:38;;;;;;;2.45;2.22;;;;;;;30.89;52.27;100577.16;5022960;28;20481;-63
2023/08/23 10:43:17;;;;;;;4.22;2.42;;;;;;;31.02;51.20;100565.81;4994378;28;21413;-63
2023/08/23 10:45:56;;;;;;;4.80;2.65;;;;;;;31.04;51.29;100569.03;4994876;28;21211;-63
2023/08/23 10:48:23;;;;;;;2.47;2.28;;;;;;;31.10;51.66;100564.41;4994553;28;20064;-63
2023/08/23 10:50:49;;;;;;;5.13;2.30;;;;;;;31.08;51.24;100553.13;5013409;28;20029;-62
2023/08/23 10:53:16;;;;;;;4.32;2.58;;;;;;;31.07;51.22;100557.72;5004690;28;20042;-63
2023/08/23 10:55:42;;;;;;;2.95;2.40;;;;;;;31.51;49.35;100549.63;4995026;28;20044;-63
2023/08/23 10:58:07;;;;;;;3.80;2.25;;;;;;;31.52;48.85;100548.53;5004409;28;20397;-63
2023/08/23 11:00:33;;;;;;;5.07;2.30;;;;;;;31.66;48.64;100548.69;5010912;28;20442;-63
2023/08/23 11:02:58;;;;;;;4.18;2.53;;;;;;;31.60;49.44;100547.13;5005407;28;20040;-63
2023/08/23 11:05:24;;;;;;;4.78;2.38;;;;;;;31.49;50.00;100543.72;5025650;28;20033;-63
2023/08/23 11:07:50;;;;;;;3.58;2.05;;;;;;;31.51;50.35;100540.75;5020514;28;20028;-63
2023/08/23 11:10:16;;;;;;;3.47;2.58;;;;;;;31.50;50.70;100536.44;5018039;28;20037;-63
2023/08/23 11:12:41;;;;;;;2.95;1.88;;;;;;;31.49;50.04;100532.94;5011300;28;20037;-63
2023/08/23 11:15:07;;;;;;;4.43;2.85;;;;;;;31.69;49.55;100531.97;5021060;28;24630;-63
2023/08/23 11:17:34;;;;;;;4.97;2.15;;;;;;;31.72;50.19;100531.41;5017977;28;20473;-63
2023/08/23 11:20:00;;;;;;;3.50;2.10;;;;;;;31.69;50.91;100529.28;5015818;28;20056;-63
2023/08/23 11:22:25;;;;;;;3.67;2.70;;;;;;;31.68;50.75;100528.47;5026990;28;20389;-63